sensor_id;sensor_type;location;lat;lon;timestamp;P1;durP1;ratioP1;P2;durP2;ratioP2
50443;SDS011;36370;52.216;21.142;2022-11-15T00:01:47;51.17;;;31.40;;
50443;SDS011;36370;52.216;21.142;2022-11-15T00:06:08;47.58;;;28.85;;
50443;SDS011;36370;52.216;21.142;2022-11-15T00:10:28;50.03;;;31.23;;
50443;SDS011;36370;52.216;21.142;2022-11-15T00:14:49;54.13;;;32.92;;
50443;SDS011;36370;52.216;21.142;2022-11-15T00:19:09;59.20;;;32.47;;
50443;SDS011;36370;52.216;21.142;2022-11-15T00:23:30;59.60;;;33.58;;
50443;SDS011;36370;52.216;21.142;2022-11-15T00:27:54;58.63;;;31.27;;
50443;SDS011;36370;52.216;21.142;2022-11-15T00:32:16;59.70;;;35.50;;
50443;SDS011;36370;52.216;21.142;2022-11-15T00:36:36;63.58;;;35.15;;
50443;SDS011;36370;52.216;21.142;2022-11-15T00:40:57;65.18;;;35.78;;
50443;SDS011;36370;52.216;21.142;2022-11-15T00:45:17;64.45;;;36.58;;
50443;SDS011;36370;52.216;21.142;2022-11-15T00:49:37;64.35;;;36.22;;
50443;SDS011;36370;52.216;21.142;2022-11-15T00:53:58;70.20;;;37.53;;
50443;SDS011;36370;52.216;21.142;2022-11-15T00:58:18;66.80;;;37.13;;
50443;SDS011;36370;52.216;21.142;2022-11-15T01:02:39;72.78;;;40.83;;
50443;SDS011;36370;52.216;21.142;2022-11-15T01:06:59;73.05;;;39.65;;
50443;SDS011;36370;52.216;21.142;2022-11-15T01:11:20;73.03;;;39.47;;
50443;SDS011;36370;52.216;21.142;2022-11-15T01:15:40;75.18;;;41.17;;
50443;SDS011;36370;52.216;21.142;2022-11-15T01:20:01;72.80;;;40.38;;
50443;SDS011;36370;52.216;21.142;2022-11-15T01:24:22;75.63;;;41.15;;
50443;SDS011;36370;52.216;21.142;2022-11-15T01:28:43;78.22;;;39.80;;
50443;SDS011;36370;52.216;21.142;2022-11-15T01:33:04;88.78;;;44.67;;
50443;SDS011;36370;52.216;21.142;2022-11-15T01:37:24;88.50;;;44.97;;
50443;SDS011;36370;52.216;21.142;2022-11-15T01:41:45;81.25;;;44.17;;
50443;SDS011;36370;52.216;21.142;2022-11-15T01:46:21;93.22;;;46.78;;
50443;SDS011;36370;52.216;21.142;2022-11-15T01:50:45;90.93;;;48.65;;
50443;SDS011;36370;52.216;21.142;2022-11-15T01:55:18;94.35;;;50.35;;
50443;SDS011;36370;52.216;21.142;2022-11-15T01:59:43;96.35;;;49.13;;
50443;SDS011;36370;52.216;21.142;2022-11-15T02:08:33;93.28;;;49.40;;
50443;SDS011;36370;52.216;21.142;2022-11-15T02:12:53;98.20;;;49.20;;
50443;SDS011;36370;52.216;21.142;2022-11-15T02:21:44;98.03;;;50.63;;
50443;SDS011;36370;52.216;21.142;2022-11-15T02:26:25;100.47;;;49.17;;
50443;SDS011;36370;52.216;21.142;2022-11-15T02:30:47;94.43;;;48.08;;
50443;SDS011;36370;52.216;21.142;2022-11-15T02:40:32;93.63;;;44.80;;
50443;SDS011;36370;52.216;21.142;2022-11-15T02:44:58;94.95;;;48.28;;
50443;SDS011;36370;52.216;21.142;2022-11-15T02:49:24;93.85;;;47.45;;
50443;SDS011;36370;52.216;21.142;2022-11-15T02:53:48;95.00;;;47.95;;
50443;SDS011;36370;52.216;21.142;2022-11-15T03:12:05;99.03;;;47.85;;
50443;SDS011;36370;52.216;21.142;2022-11-15T03:16:38;95.85;;;48.10;;
50443;SDS011;36370;52.216;21.142;2022-11-15T03:21:05;95.38;;;45.42;;
50443;SDS011;36370;52.216;21.142;2022-11-15T03:25:28;102.75;;;50.58;;
50443;SDS011;36370;52.216;21.142;2022-11-15T03:29:55;100.93;;;47.53;;
50443;SDS011;36370;52.216;21.142;2022-11-15T03:34:25;107.60;;;47.92;;
50443;SDS011;36370;52.216;21.142;2022-11-15T03:38:47;107.20;;;48.75;;
50443;SDS011;36370;52.216;21.142;2022-11-15T03:43:18;109.70;;;49.78;;
50443;SDS011;36370;52.216;21.142;2022-11-15T03:47:49;112.68;;;52.88;;
50443;SDS011;36370;52.216;21.142;2022-11-15T03:52:15;116.63;;;53.15;;
50443;SDS011;36370;52.216;21.142;2022-11-15T03:56:38;114.90;;;53.85;;
50443;SDS011;36370;52.216;21.142;2022-11-15T04:00:59;117.07;;;53.92;;
50443;SDS011;36370;52.216;21.142;2022-11-15T04:05:19;109.13;;;51.58;;
50443;SDS011;36370;52.216;21.142;2022-11-15T04:09:40;115.65;;;53.17;;
50443;SDS011;36370;52.216;21.142;2022-11-15T04:14:19;108.22;;;49.95;;
50443;SDS011;36370;52.216;21.142;2022-11-15T04:18:40;115.13;;;51.92;;
50443;SDS011;36370;52.216;21.142;2022-11-15T04:23:04;108.47;;;51.97;;
50443;SDS011;36370;52.216;21.142;2022-11-15T04:27:45;109.30;;;51.70;;
50443;SDS011;36370;52.216;21.142;2022-11-15T04:32:06;105.75;;;50.95;;
50443;SDS011;36370;52.216;21.142;2022-11-15T04:36:27;99.50;;;48.00;;
50443;SDS011;36370;52.216;21.142;2022-11-15T04:41:06;117.53;;;51.92;;
50443;SDS011;36370;52.216;21.142;2022-11-15T04:45:26;110.38;;;49.90;;
50443;SDS011;36370;52.216;21.142;2022-11-15T04:49:47;107.55;;;47.80;;
50443;SDS011;36370;52.216;21.142;2022-11-15T04:54:07;113.18;;;52.88;;
50443;SDS011;36370;52.216;21.142;2022-11-15T04:58:28;109.55;;;49.75;;
50443;SDS011;36370;52.216;21.142;2022-11-15T05:02:48;110.63;;;47.92;;
50443;SDS011;36370;52.216;21.142;2022-11-15T05:07:31;123.53;;;54.22;;
50443;SDS011;36370;52.216;21.142;2022-11-15T05:11:51;110.47;;;48.60;;
50443;SDS011;36370;52.216;21.142;2022-11-15T05:16:12;125.28;;;52.53;;
50443;SDS011;36370;52.216;21.142;2022-11-15T05:20:32;123.95;;;50.92;;
50443;SDS011;36370;52.216;21.142;2022-11-15T05:24:52;130.00;;;54.17;;
50443;SDS011;36370;52.216;21.142;2022-11-15T05:29:13;124.30;;;52.65;;
50443;SDS011;36370;52.216;21.142;2022-11-15T05:33:34;120.53;;;52.60;;
50443;SDS011;36370;52.216;21.142;2022-11-15T05:37:56;117.40;;;49.22;;
50443;SDS011;36370;52.216;21.142;2022-11-15T05:42:16;124.55;;;50.22;;
50443;SDS011;36370;52.216;21.142;2022-11-15T05:46:37;120.25;;;50.15;;
50443;SDS011;36370;52.216;21.142;2022-11-15T05:51:00;127.82;;;49.35;;
50443;SDS011;36370;52.216;21.142;2022-11-15T05:55:22;123.90;;;49.13;;
50443;SDS011;36370;52.216;21.142;2022-11-15T05:59:42;125.03;;;48.83;;
50443;SDS011;36370;52.216;21.142;2022-11-15T06:04:03;136.13;;;52.25;;
50443;SDS011;36370;52.216;21.142;2022-11-15T06:08:24;115.28;;;50.28;;
50443;SDS011;36370;52.216;21.142;2022-11-15T06:12:45;122.63;;;48.17;;
50443;SDS011;36370;52.216;21.142;2022-11-15T06:17:05;138.88;;;52.45;;
50443;SDS011;36370;52.216;21.142;2022-11-15T06:21:30;127.70;;;49.15;;
50443;SDS011;36370;52.216;21.142;2022-11-15T06:25:51;136.60;;;54.35;;
50443;SDS011;36370;52.216;21.142;2022-11-15T06:30:11;139.23;;;52.58;;
50443;SDS011;36370;52.216;21.142;2022-11-15T06:34:31;142.77;;;51.65;;
50443;SDS011;36370;52.216;21.142;2022-11-15T06:38:52;142.80;;;52.00;;
50443;SDS011;36370;52.216;21.142;2022-11-15T06:43:13;140.75;;;54.35;;
50443;SDS011;36370;52.216;21.142;2022-11-15T06:47:34;149.07;;;50.17;;
50443;SDS011;36370;52.216;21.142;2022-11-15T06:51:55;148.25;;;53.35;;
50443;SDS011;36370;52.216;21.142;2022-11-15T06:56:15;156.52;;;52.53;;
50443;SDS011;36370;52.216;21.142;2022-11-15T07:00:35;147.00;;;50.90;;
50443;SDS011;36370;52.216;21.142;2022-11-15T07:04:56;153.63;;;51.53;;
50443;SDS011;36370;52.216;21.142;2022-11-15T07:09:17;153.07;;;51.80;;
50443;SDS011;36370;52.216;21.142;2022-11-15T07:13:37;148.05;;;48.65;;
50443;SDS011;36370;52.216;21.142;2022-11-15T07:18:00;169.13;;;53.33;;
50443;SDS011;36370;52.216;21.142;2022-11-15T07:22:20;149.43;;;51.47;;
50443;SDS011;36370;52.216;21.142;2022-11-15T07:26:41;146.23;;;51.85;;
50443;SDS011;36370;52.216;21.142;2022-11-15T07:31:05;135.95;;;50.42;;
50443;SDS011;36370;52.216;21.142;2022-11-15T07:35:27;150.07;;;49.88;;
50443;SDS011;36370;52.216;21.142;2022-11-15T07:39:48;147.27;;;49.85;;
50443;SDS011;36370;52.216;21.142;2022-11-15T07:44:09;143.88;;;51.75;;
50443;SDS011;36370;52.216;21.142;2022-11-15T07:48:29;141.88;;;52.03;;
50443;SDS011;36370;52.216;21.142;2022-11-15T07:53:03;127.53;;;49.08;;
50443;SDS011;36370;52.216;21.142;2022-11-15T07:57:23;109.88;;;44.92;;
50443;SDS011;36370;52.216;21.142;2022-11-15T08:01:44;101.63;;;40.78;;
50443;SDS011;36370;52.216;21.142;2022-11-15T08:06:05;97.13;;;40.17;;
50443;SDS011;36370;52.216;21.142;2022-11-15T08:10:26;107.25;;;42.95;;
50443;SDS011;36370;52.216;21.142;2022-11-15T08:14:47;106.50;;;42.92;;
50443;SDS011;36370;52.216;21.142;2022-11-15T08:19:08;101.82;;;41.08;;
50443;SDS011;36370;52.216;21.142;2022-11-15T08:23:28;109.68;;;41.85;;
50443;SDS011;36370;52.216;21.142;2022-11-15T08:27:51;100.70;;;42.25;;
50443;SDS011;36370;52.216;21.142;2022-11-15T08:32:12;102.40;;;44.60;;
50443;SDS011;36370;52.216;21.142;2022-11-15T08:36:33;109.68;;;44.42;;
50443;SDS011;36370;52.216;21.142;2022-11-15T08:41:04;100.80;;;43.33;;
50443;SDS011;36370;52.216;21.142;2022-11-15T08:45:26;86.82;;;37.95;;
50443;SDS011;36370;52.216;21.142;2022-11-15T08:49:46;76.30;;;36.95;;
50443;SDS011;36370;52.216;21.142;2022-11-15T08:54:07;86.30;;;37.53;;
50443;SDS011;36370;52.216;21.142;2022-11-15T08:58:27;78.65;;;37.45;;
50443;SDS011;36370;52.216;21.142;2022-11-15T09:02:49;66.15;;;32.50;;
50443;SDS011;36370;52.216;21.142;2022-11-15T09:07:10;72.63;;;32.67;;
50443;SDS011;36370;52.216;21.142;2022-11-15T09:11:31;74.85;;;38.80;;
50443;SDS011;36370;52.216;21.142;2022-11-15T09:15:51;78.97;;;36.38;;
50443;SDS011;36370;52.216;21.142;2022-11-15T09:20:12;85.63;;;38.25;;
50443;SDS011;36370;52.216;21.142;2022-11-15T09:24:32;81.68;;;36.40;;
50443;SDS011;36370;52.216;21.142;2022-11-15T09:28:52;81.78;;;37.97;;
50443;SDS011;36370;52.216;21.142;2022-11-15T09:33:13;74.00;;;36.70;;
50443;SDS011;36370;52.216;21.142;2022-11-15T09:37:34;78.78;;;35.20;;
50443;SDS011;36370;52.216;21.142;2022-11-15T09:51:06;69.30;;;33.22;;
50443;SDS011;36370;52.216;21.142;2022-11-15T09:55:14;78.78;;;35.90;;
50443;SDS011;36370;52.216;21.142;2022-11-15T10:03:46;78.10;;;36.92;;
50443;SDS011;36370;52.216;21.142;2022-11-15T10:12:37;80.60;;;37.67;;
50443;SDS011;36370;52.216;21.142;2022-11-15T10:24:58;69.90;;;37.92;;
50443;SDS011;36370;52.216;21.142;2022-11-15T10:29:20;74.97;;;36.88;;
50443;SDS011;36370;52.216;21.142;2022-11-15T10:33:32;79.60;;;35.90;;
50443;SDS011;36370;52.216;21.142;2022-11-15T10:37:40;87.03;;;37.83;;
50443;SDS011;36370;52.216;21.142;2022-11-15T10:41:42;74.45;;;38.35;;
50443;SDS011;36370;52.216;21.142;2022-11-15T10:45:44;75.32;;;36.63;;
50443;SDS011;36370;52.216;21.142;2022-11-15T10:49:54;78.32;;;38.45;;
50443;SDS011;36370;52.216;21.142;2022-11-15T10:53:59;93.13;;;46.25;;
50443;SDS011;36370;52.216;21.142;2022-11-15T10:58:04;82.95;;;40.78;;
50443;SDS011;36370;52.216;21.142;2022-11-15T11:10:56;82.80;;;39.70;;
50443;SDS011;36370;52.216;21.142;2022-11-15T11:15:09;87.25;;;42.08;;
50443;SDS011;36370;52.216;21.142;2022-11-15T11:27:47;80.53;;;37.83;;
50443;SDS011;36370;52.216;21.142;2022-11-15T11:40:44;83.68;;;40.75;;
50443;SDS011;36370;52.216;21.142;2022-11-15T11:49:16;86.93;;;43.80;;
50443;SDS011;36370;52.216;21.142;2022-11-15T11:53:35;82.90;;;40.28;;
50443;SDS011;36370;52.216;21.142;2022-11-15T12:02:11;80.18;;;41.15;;
50443;SDS011;36370;52.216;21.142;2022-11-15T12:06:27;77.25;;;39.30;;
50443;SDS011;36370;52.216;21.142;2022-11-15T12:10:39;81.00;;;40.15;;
50443;SDS011;36370;52.216;21.142;2022-11-15T12:18:50;80.28;;;41.20;;
50443;SDS011;36370;52.216;21.142;2022-11-15T12:23:05;85.22;;;41.90;;
50443;SDS011;36370;52.216;21.142;2022-11-15T12:27:26;87.07;;;41.97;;
50443;SDS011;36370;52.216;21.142;2022-11-15T12:35:40;75.85;;;38.97;;
50443;SDS011;36370;52.216;21.142;2022-11-15T12:44:11;82.47;;;41.70;;
50443;SDS011;36370;52.216;21.142;2022-11-15T12:52:19;87.30;;;42.28;;
50443;SDS011;36370;52.216;21.142;2022-11-15T12:56:21;113.68;;;58.30;;
50443;SDS011;36370;52.216;21.142;2022-11-15T13:04:27;87.22;;;42.03;;
50443;SDS011;36370;52.216;21.142;2022-11-15T13:08:35;81.90;;;43.58;;
50443;SDS011;36370;52.216;21.142;2022-11-15T13:16:45;83.25;;;41.10;;
50443;SDS011;36370;52.216;21.142;2022-11-15T13:20:48;85.80;;;43.70;;
50443;SDS011;36370;52.216;21.142;2022-11-15T13:24:50;86.22;;;44.40;;
50443;SDS011;36370;52.216;21.142;2022-11-15T13:28:52;87.97;;;44.55;;
50443;SDS011;36370;52.216;21.142;2022-11-15T13:32:58;96.40;;;49.88;;
50443;SDS011;36370;52.216;21.142;2022-11-15T13:37:12;104.22;;;49.70;;
50443;SDS011;36370;52.216;21.142;2022-11-15T13:41:34;96.45;;;49.75;;
50443;SDS011;36370;52.216;21.142;2022-11-15T13:45:37;106.82;;;54.67;;
50443;SDS011;36370;52.216;21.142;2022-11-15T13:49:39;91.90;;;46.55;;
50443;SDS011;36370;52.216;21.142;2022-11-15T13:53:43;94.43;;;47.35;;
50443;SDS011;36370;52.216;21.142;2022-11-15T13:57:51;92.80;;;47.28;;
50443;SDS011;36370;52.216;21.142;2022-11-15T14:02:13;170.57;;;72.30;;
50443;SDS011;36370;52.216;21.142;2022-11-15T14:06:19;105.60;;;52.13;;
50443;SDS011;36370;52.216;21.142;2022-11-15T14:10:25;105.60;;;49.03;;
50443;SDS011;36370;52.216;21.142;2022-11-15T14:14:29;119.13;;;57.05;;
50443;SDS011;36370;52.216;21.142;2022-11-15T14:18:41;128.15;;;61.40;;
50443;SDS011;36370;52.216;21.142;2022-11-15T14:22:52;110.72;;;52.92;;
50443;SDS011;36370;52.216;21.142;2022-11-15T14:31:23;105.15;;;51.55;;
50443;SDS011;36370;52.216;21.142;2022-11-15T14:35:26;116.53;;;54.17;;
50443;SDS011;36370;52.216;21.142;2022-11-15T14:39:27;112.28;;;53.72;;
50443;SDS011;36370;52.216;21.142;2022-11-15T14:43:29;106.32;;;51.83;;
50443;SDS011;36370;52.216;21.142;2022-11-15T14:47:31;110.38;;;51.15;;
50443;SDS011;36370;52.216;21.142;2022-11-15T14:51:33;150.15;;;70.25;;
50443;SDS011;36370;52.216;21.142;2022-11-15T14:55:35;139.38;;;68.63;;
50443;SDS011;36370;52.216;21.142;2022-11-15T14:59:38;110.03;;;52.03;;
50443;SDS011;36370;52.216;21.142;2022-11-15T15:03:44;117.38;;;51.53;;
50443;SDS011;36370;52.216;21.142;2022-11-15T15:07:47;113.97;;;48.88;;
50443;SDS011;36370;52.216;21.142;2022-11-15T15:11:49;118.25;;;52.50;;
50443;SDS011;36370;52.216;21.142;2022-11-15T15:15:51;112.47;;;51.30;;
50443;SDS011;36370;52.216;21.142;2022-11-15T15:19:54;115.93;;;50.67;;
50443;SDS011;36370;52.216;21.142;2022-11-15T15:23:56;111.43;;;52.28;;
50443;SDS011;36370;52.216;21.142;2022-11-15T15:27:58;114.75;;;53.42;;
50443;SDS011;36370;52.216;21.142;2022-11-15T15:32:01;102.43;;;46.08;;
50443;SDS011;36370;52.216;21.142;2022-11-15T15:36:02;104.75;;;47.33;;
50443;SDS011;36370;52.216;21.142;2022-11-15T15:40:10;106.28;;;48.65;;
50443;SDS011;36370;52.216;21.142;2022-11-15T15:44:15;121.68;;;50.15;;
50443;SDS011;36370;52.216;21.142;2022-11-15T15:48:17;132.02;;;58.10;;
50443;SDS011;36370;52.216;21.142;2022-11-15T15:52:19;117.57;;;52.35;;
50443;SDS011;36370;52.216;21.142;2022-11-15T15:56:21;124.40;;;53.70;;
50443;SDS011;36370;52.216;21.142;2022-11-15T16:00:23;113.70;;;51.63;;
50443;SDS011;36370;52.216;21.142;2022-11-15T16:04:26;106.72;;;48.75;;
50443;SDS011;36370;52.216;21.142;2022-11-15T16:08:30;118.03;;;50.50;;
50443;SDS011;36370;52.216;21.142;2022-11-15T16:12:48;117.63;;;49.40;;
50443;SDS011;36370;52.216;21.142;2022-11-15T16:16:50;113.10;;;49.85;;
50443;SDS011;36370;52.216;21.142;2022-11-15T16:20:52;128.30;;;55.15;;
50443;SDS011;36370;52.216;21.142;2022-11-15T16:24:58;130.55;;;61.00;;
50443;SDS011;36370;52.216;21.142;2022-11-15T16:29:00;126.88;;;56.58;;
50443;SDS011;36370;52.216;21.142;2022-11-15T16:33:01;129.77;;;57.95;;
50443;SDS011;36370;52.216;21.142;2022-11-15T16:37:03;105.68;;;49.72;;
50443;SDS011;36370;52.216;21.142;2022-11-15T16:41:06;114.38;;;49.75;;
50443;SDS011;36370;52.216;21.142;2022-11-15T16:45:10;114.20;;;51.92;;
50443;SDS011;36370;52.216;21.142;2022-11-15T16:49:13;107.80;;;49.00;;
50443;SDS011;36370;52.216;21.142;2022-11-15T16:53:16;109.93;;;49.08;;
50443;SDS011;36370;52.216;21.142;2022-11-15T16:57:18;115.32;;;50.50;;
50443;SDS011;36370;52.216;21.142;2022-11-15T17:01:22;99.47;;;45.47;;
50443;SDS011;36370;52.216;21.142;2022-11-15T17:05:36;114.20;;;49.83;;
50443;SDS011;36370;52.216;21.142;2022-11-15T17:09:38;123.20;;;55.50;;
50443;SDS011;36370;52.216;21.142;2022-11-15T17:13:40;131.77;;;54.42;;
50443;SDS011;36370;52.216;21.142;2022-11-15T17:17:42;136.15;;;55.88;;
50443;SDS011;36370;52.216;21.142;2022-11-15T17:21:47;136.38;;;55.88;;
50443;SDS011;36370;52.216;21.142;2022-11-15T17:26:00;137.00;;;55.95;;
50443;SDS011;36370;52.216;21.142;2022-11-15T17:30:24;132.98;;;53.95;;
50443;SDS011;36370;52.216;21.142;2022-11-15T17:34:27;123.65;;;49.90;;
50443;SDS011;36370;52.216;21.142;2022-11-15T17:38:29;116.32;;;47.85;;
50443;SDS011;36370;52.216;21.142;2022-11-15T17:42:31;128.55;;;53.90;;
50443;SDS011;36370;52.216;21.142;2022-11-15T17:46:33;99.82;;;44.30;;
50443;SDS011;36370;52.216;21.142;2022-11-15T17:50:37;104.50;;;44.10;;
50443;SDS011;36370;52.216;21.142;2022-11-15T17:54:38;126.30;;;53.10;;
50443;SDS011;36370;52.216;21.142;2022-11-15T17:58:41;107.25;;;45.95;;
50443;SDS011;36370;52.216;21.142;2022-11-15T18:02:47;126.38;;;53.92;;
50443;SDS011;36370;52.216;21.142;2022-11-15T18:06:49;118.30;;;50.63;;
50443;SDS011;36370;52.216;21.142;2022-11-15T18:11:00;111.22;;;45.00;;
50443;SDS011;36370;52.216;21.142;2022-11-15T18:15:06;98.45;;;41.88;;
50443;SDS011;36370;52.216;21.142;2022-11-15T18:19:08;114.53;;;44.55;;
50443;SDS011;36370;52.216;21.142;2022-11-15T18:23:15;101.63;;;43.38;;
50443;SDS011;36370;52.216;21.142;2022-11-15T18:27:17;110.07;;;41.97;;
50443;SDS011;36370;52.216;21.142;2022-11-15T18:31:19;97.85;;;39.60;;
50443;SDS011;36370;52.216;21.142;2022-11-15T18:35:23;100.70;;;39.92;;
50443;SDS011;36370;52.216;21.142;2022-11-15T18:39:25;80.30;;;33.03;;
50443;SDS011;36370;52.216;21.142;2022-11-15T18:43:26;78.63;;;34.90;;
50443;SDS011;36370;52.216;21.142;2022-11-15T18:47:28;75.93;;;33.75;;
50443;SDS011;36370;52.216;21.142;2022-11-15T18:51:33;70.55;;;32.90;;
50443;SDS011;36370;52.216;21.142;2022-11-15T18:55:36;102.85;;;41.85;;
50443;SDS011;36370;52.216;21.142;2022-11-15T18:59:38;87.80;;;39.05;;
50443;SDS011;36370;52.216;21.142;2022-11-15T19:03:41;98.22;;;40.50;;
50443;SDS011;36370;52.216;21.142;2022-11-15T19:07:46;89.95;;;37.00;;
50443;SDS011;36370;52.216;21.142;2022-11-15T19:11:49;94.30;;;41.05;;
50443;SDS011;36370;52.216;21.142;2022-11-15T19:15:56;80.55;;;35.63;;
50443;SDS011;36370;52.216;21.142;2022-11-15T19:19:59;101.55;;;43.60;;
50443;SDS011;36370;52.216;21.142;2022-11-15T19:24:01;115.63;;;48.17;;
50443;SDS011;36370;52.216;21.142;2022-11-15T19:28:03;74.82;;;34.58;;
50443;SDS011;36370;52.216;21.142;2022-11-15T19:32:05;95.53;;;42.42;;
50443;SDS011;36370;52.216;21.142;2022-11-15T19:36:10;103.05;;;44.50;;
50443;SDS011;36370;52.216;21.142;2022-11-15T19:40:13;114.40;;;48.80;;
50443;SDS011;36370;52.216;21.142;2022-11-15T19:44:15;92.22;;;37.30;;
50443;SDS011;36370;52.216;21.142;2022-11-15T19:48:19;87.93;;;37.33;;
50443;SDS011;36370;52.216;21.142;2022-11-15T19:52:21;81.00;;;37.03;;
50443;SDS011;36370;52.216;21.142;2022-11-15T19:56:24;94.10;;;42.08;;
50443;SDS011;36370;52.216;21.142;2022-11-15T20:00:26;82.35;;;37.92;;
50443;SDS011;36370;52.216;21.142;2022-11-15T20:04:28;86.88;;;37.83;;
50443;SDS011;36370;52.216;21.142;2022-11-15T20:08:30;67.70;;;29.50;;
50443;SDS011;36370;52.216;21.142;2022-11-15T20:12:33;59.17;;;27.50;;
50443;SDS011;36370;52.216;21.142;2022-11-15T20:16:34;56.38;;;26.77;;
50443;SDS011;36370;52.216;21.142;2022-11-15T20:20:36;87.85;;;40.58;;
50443;SDS011;36370;52.216;21.142;2022-11-15T20:24:38;64.15;;;29.52;;
50443;SDS011;36370;52.216;21.142;2022-11-15T20:28:40;63.78;;;33.38;;
50443;SDS011;36370;52.216;21.142;2022-11-15T20:32:42;59.63;;;28.10;;
50443;SDS011;36370;52.216;21.142;2022-11-15T20:36:44;70.15;;;33.13;;
50443;SDS011;36370;52.216;21.142;2022-11-15T20:40:47;52.10;;;26.20;;
50443;SDS011;36370;52.216;21.142;2022-11-15T20:44:50;59.25;;;28.33;;
50443;SDS011;36370;52.216;21.142;2022-11-15T20:48:51;63.47;;;30.63;;
50443;SDS011;36370;52.216;21.142;2022-11-15T20:52:54;74.63;;;32.55;;
50443;SDS011;36370;52.216;21.142;2022-11-15T20:56:58;68.80;;;33.75;;
50443;SDS011;36370;52.216;21.142;2022-11-15T21:01:00;61.65;;;28.13;;
50443;SDS011;36370;52.216;21.142;2022-11-15T21:05:02;49.67;;;25.35;;
50443;SDS011;36370;52.216;21.142;2022-11-15T21:09:04;44.88;;;21.65;;
50443;SDS011;36370;52.216;21.142;2022-11-15T21:13:25;49.65;;;27.00;;
50443;SDS011;36370;52.216;21.142;2022-11-15T21:17:27;41.63;;;22.10;;
50443;SDS011;36370;52.216;21.142;2022-11-15T21:21:29;54.40;;;27.15;;
50443;SDS011;36370;52.216;21.142;2022-11-15T21:25:32;54.95;;;24.52;;
50443;SDS011;36370;52.216;21.142;2022-11-15T21:29:34;50.15;;;23.35;;
50443;SDS011;36370;52.216;21.142;2022-11-15T21:33:39;51.03;;;24.52;;
50443;SDS011;36370;52.216;21.142;2022-11-15T21:37:41;50.22;;;24.48;;
50443;SDS011;36370;52.216;21.142;2022-11-15T21:41:43;51.78;;;26.25;;
50443;SDS011;36370;52.216;21.142;2022-11-15T21:45:55;44.88;;;22.10;;
50443;SDS011;36370;52.216;21.142;2022-11-15T21:49:58;51.58;;;24.38;;
50443;SDS011;36370;52.216;21.142;2022-11-15T21:54:00;52.15;;;24.10;;
50443;SDS011;36370;52.216;21.142;2022-11-15T21:58:02;50.75;;;23.85;;
50443;SDS011;36370;52.216;21.142;2022-11-15T22:02:04;46.90;;;23.05;;
50443;SDS011;36370;52.216;21.142;2022-11-15T22:06:15;51.38;;;23.45;;
50443;SDS011;36370;52.216;21.142;2022-11-15T22:10:19;53.88;;;25.63;;
50443;SDS011;36370;52.216;21.142;2022-11-15T22:14:20;60.60;;;25.27;;
50443;SDS011;36370;52.216;21.142;2022-11-15T22:18:23;54.00;;;24.35;;
50443;SDS011;36370;52.216;21.142;2022-11-15T22:22:27;66.40;;;28.55;;
50443;SDS011;36370;52.216;21.142;2022-11-15T22:26:29;69.45;;;29.40;;
50443;SDS011;36370;52.216;21.142;2022-11-15T22:30:31;62.47;;;28.17;;
50443;SDS011;36370;52.216;21.142;2022-11-15T22:34:33;59.03;;;27.27;;
50443;SDS011;36370;52.216;21.142;2022-11-15T22:38:34;70.80;;;30.08;;
50443;SDS011;36370;52.216;21.142;2022-11-15T22:42:37;58.53;;;26.70;;
50443;SDS011;36370;52.216;21.142;2022-11-15T22:46:39;64.97;;;28.25;;
50443;SDS011;36370;52.216;21.142;2022-11-15T22:50:42;63.45;;;28.05;;
50443;SDS011;36370;52.216;21.142;2022-11-15T22:54:44;63.33;;;27.27;;
50443;SDS011;36370;52.216;21.142;2022-11-15T22:58:46;70.15;;;27.02;;
50443;SDS011;36370;52.216;21.142;2022-11-15T23:02:49;67.18;;;27.52;;
50443;SDS011;36370;52.216;21.142;2022-11-15T23:06:55;69.60;;;28.30;;
50443;SDS011;36370;52.216;21.142;2022-11-15T23:11:00;64.65;;;27.63;;
50443;SDS011;36370;52.216;21.142;2022-11-15T23:15:22;73.82;;;29.30;;
50443;SDS011;36370;52.216;21.142;2022-11-15T23:19:24;74.03;;;30.13;;
50443;SDS011;36370;52.216;21.142;2022-11-15T23:23:26;66.63;;;26.50;;
50443;SDS011;36370;52.216;21.142;2022-11-15T23:27:27;78.20;;;28.48;;
50443;SDS011;36370;52.216;21.142;2022-11-15T23:31:29;66.47;;;28.45;;
50443;SDS011;36370;52.216;21.142;2022-11-15T23:36:02;74.03;;;29.00;;
50443;SDS011;36370;52.216;21.142;2022-11-15T23:40:04;66.40;;;28.38;;
50443;SDS011;36370;52.216;21.142;2022-11-15T23:44:08;78.25;;;30.23;;
50443;SDS011;36370;52.216;21.142;2022-11-15T23:48:10;71.72;;;28.98;;
50443;SDS011;36370;52.216;21.142;2022-11-15T23:52:12;67.47;;;29.42;;
50443;SDS011;36370;52.216;21.142;2022-11-15T23:56:16;71.82;;;29.25;;
